Time;durP1;ratioP1;P1;durP2;ratioP2;P2;SDS_P1;SDS_P2;PMS_P1;PMS_P2;Temp;Humidity;BMP_temperature;BMP_pressure;BME280_temperature;BME280_humidity;BME280_pressure;Samples;Min_cycle;Max_cycle;Signal;HPM_P1;HPM_P2
2022/06/16 00:00:46;;;;;;;2.43;1.90;;;;;;;19.84;46.86;98773.19;5093445;28;41531;-74
2022/06/16 00:03:13;;;;;;;2.00;1.80;;;;;;;19.79;47.02;98778.19;5076858;28;42786;-74
2022/06/16 00:05:43;;;;;;;2.20;2.07;;;;;;;19.73;47.00;98779.69;5127782;27;42275;-76
2022/06/16 00:08:14;;;;;;;2.23;2.03;;;;;;;19.68;46.95;98788.19;5094859;28;40054;-74
2022/06/16 00:11:16;;;;;;;1.87;1.77;;;;;;;19.65;47.01;98791.22;5076204;28;41006;-74
2022/06/16 00:13:33;;;;;;;1.87;1.77;;;;;;;19.64;47.88;98784.16;5076433;28;41522;-73
2022/06/16 00:16:00;;;;;;;2.00;1.80;;;;;;;19.63;47.83;98779.78;5093325;28;42309;-74
2022/06/16 00:18:28;;;;;;;2.10;1.87;;;;;;;19.64;47.71;98778.78;5094713;28;40947;-76
2022/06/16 00:20:56;;;;;;;2.40;2.20;;;;;;;19.65;47.55;98783.16;5093205;28;40704;-74
2022/06/16 00:23:24;;;;;;;2.30;2.10;;;;;;;19.65;48.77;98775.09;5127734;27;42729;-76
2022/06/16 00:25:53;;;;;;;3.43;2.30;;;;;;;19.65;48.56;98780.47;5094535;28;42211;-75
2022/06/16 00:28:21;;;;;;;2.07;1.87;;;;;;;19.63;47.98;98777.09;5094637;28;39776;-76
2022/06/16 00:30:48;;;;;;;2.40;2.07;;;;;;;19.62;48.33;98779.91;5093086;28;41385;-77
2022/06/16 00:33:17;;;;;;;2.70;2.50;;;;;;;19.55;48.72;98763.56;5110380;28;42748;-77
2022/06/16 00:35:44;;;;;;;2.30;2.10;;;;;;;19.55;48.53;98779.69;5075988;28;42606;-74
2022/06/16 00:38:12;;;;;;;4.20;2.50;;;;;;;19.52;48.57;98782.69;5110578;28;38732;-73
2022/06/16 00:40:40;;;;;;;1.90;1.80;;;;;;;19.51;48.28;98782.84;5092743;28;42994;-74
2022/06/16 00:43:11;;;;;;;2.33;2.13;;;;;;;19.54;48.09;98791.41;5093607;28;42785;-74
2022/06/16 00:45:49;;;;;;;2.73;2.13;;;;;;;19.55;48.60;98789.56;5109985;28;41199;-75
2022/06/16 00:48:22;;;;;;;1.97;1.87;;;;;;;19.53;48.61;98787.06;5093426;28;39100;-75
2022/06/16 00:50:54;;;;;;;2.30;2.10;;;;;;;19.51;48.60;98778.31;5109094;28;42248;-77
2022/06/16 00:53:23;;;;;;;1.70;1.60;;;;;;;19.47;48.38;98776.06;5123975;27;42566;-75
2022/06/16 00:55:51;;;;;;;2.43;1.83;;;;;;;19.46;48.85;98769.84;5109630;28;41319;-75
2022/06/16 00:58:23;;;;;;;1.90;1.80;;;;;;;19.42;48.75;98763.06;5092985;28;39931;-75
2022/06/16 01:00:52;;;;;;;2.87;2.30;;;;;;;19.38;48.46;98767.09;5093131;28;41352;-77
2022/06/16 01:06:01;;;;;;;1.77;1.67;;;;;;;19.34;48.40;98771.91;5074809;28;41232;-76
2022/06/16 01:08:30;;;;;;;1.87;1.70;;;;;;;19.34;48.28;98773.75;5109589;28;38628;-75
2022/06/16 01:11:07;;;;;;;2.07;1.87;;;;;;;19.32;48.27;98765.00;5109306;28;43527;-76
2022/06/16 01:13:45;;;;;;;1.70;1.60;;;;;;;19.30;48.50;98772.34;5109787;28;42557;-74
2022/06/16 01:16:24;;;;;;;2.13;1.93;;;;;;;19.25;48.47;98758.56;5124448;27;43140;-75
2022/06/16 01:18:59;;;;;;;2.23;2.03;;;;;;;19.14;48.22;98759.63;5089466;28;39956;-74
2022/06/16 01:21:36;;;;;;;2.00;1.80;;;;;;;19.01;48.35;98751.94;5090662;28;41773;-77
2022/06/16 01:24:35;;;;;;;1.90;1.80;;;;;;;19.05;49.02;98759.69;5089347;28;44225;-75
2022/06/16 01:27:22;;;;;;;1.77;1.63;;;;;;;18.96;49.31;98756.91;5075417;28;41148;-75
2022/06/16 01:29:59;;;;;;;1.83;1.73;;;;;;;18.89;49.25;98755.84;5092604;28;40801;-76
2022/06/16 01:32:38;;;;;;;1.83;1.67;;;;;;;18.85;49.23;98738.34;5091698;28;41815;-75
2022/06/16 01:35:15;;;;;;;1.77;1.67;;;;;;;18.80;49.67;98742.47;5075521;28;41635;-75
2022/06/16 01:37:57;;;;;;;2.37;1.87;;;;;;;18.73;49.47;98744.91;5126343;27;42292;-76
2022/06/16 01:40:32;;;;;;;2.17;1.97;;;;;;;18.68;49.88;98747.19;5126207;27;39248;-78
2022/06/16 01:43:06;;;;;;;2.43;2.10;;;;;;;18.61;50.28;98740.75;5089228;28;41477;-76
2022/06/16 01:45:42;;;;;;;2.13;1.93;;;;;;;18.54;50.66;98736.97;5108728;28;42036;-76
2022/06/16 01:48:17;;;;;;;1.93;1.83;;;;;;;18.48;50.58;98734.84;5123194;27;42397;-75
2022/06/16 01:50:53;;;;;;;2.40;2.20;;;;;;;18.43;50.84;98726.41;5108969;28;38723;-74
2022/06/16 01:53:27;;;;;;;2.43;2.23;;;;;;;18.36;51.04;98725.31;5123335;27;41819;-74
2022/06/16 01:56:02;;;;;;;2.40;2.20;;;;;;;18.29;51.37;98720.56;5089135;28;43908;-78
2022/06/16 01:58:34;;;;;;;1.90;1.80;;;;;;;18.23;51.58;98731.84;5089793;28;43133;-75
2022/06/16 02:01:08;;;;;;;2.07;1.87;;;;;;;18.16;51.58;98728.09;5108500;28;38858;-76
2022/06/16 02:03:40;;;;;;;2.03;1.90;;;;;;;18.12;51.86;98740.09;5091684;28;40478;-75
2022/06/16 02:06:14;;;;;;;1.90;1.80;;;;;;;18.07;52.02;98723.59;5108450;28;42676;-77
2022/06/16 02:08:47;;;;;;;2.23;2.03;;;;;;;18.06;52.64;98727.25;5108797;28;42333;-74
2022/06/16 02:11:21;;;;;;;2.27;2.17;;;;;;;17.95;52.37;98709.53;5108498;28;38477;-78
2022/06/16 02:13:55;;;;;;;2.30;2.10;;;;;;;18.04;52.62;98726.56;5090737;28;40628;-76
2022/06/16 02:16:30;;;;;;;2.10;1.90;;;;;;;18.00;52.36;98727.84;5089434;28;42899;-77
2022/06/16 02:19:00;;;;;;;2.60;2.00;;;;;;;17.97;52.40;98725.44;5122677;27;42010;-74
2022/06/16 02:21:34;;;;;;;2.40;2.20;;;;;;;17.92;52.18;98730.44;5108253;28;40353;-76
2022/06/16 02:24:05;;;;;;;2.27;2.07;;;;;;;17.86;52.46;98733.66;5122740;27;42718;-78
2022/06/16 02:26:33;;;;;;;2.00;1.90;;;;;;;17.80;52.45;98727.03;5108293;28;43274;-76
2022/06/16 02:29:04;;;;;;;2.23;1.93;;;;;;;17.76;52.56;98722.97;5074342;28;43314;-77
2022/06/16 02:31:46;;;;;;;2.33;2.13;;;;;;;17.71;52.54;98724.38;5108850;28;39185;-74
2022/06/16 02:34:23;;;;;;;2.47;2.27;;;;;;;17.67;52.76;98723.84;5091749;28;42820;-74
2022/06/16 02:37:08;;;;;;;1.83;1.73;;;;;;;17.59;52.82;98721.00;5127206;27;43835;-76
2022/06/16 02:39:48;;;;;;;2.10;1.90;;;;;;;17.55;53.07;98731.16;5096549;28;42430;-77
2022/06/16 02:42:20;;;;;;;2.03;1.93;;;;;;;17.49;53.22;98731.72;5128908;27;39893;-76
2022/06/16 02:45:00;;;;;;;2.40;2.20;;;;;;;17.42;53.99;98730.63;5111950;28;41751;-74
2022/06/16 02:47:45;;;;;;;2.20;2.00;;;;;;;17.36;54.00;98725.81;5111679;28;41613;-74
2022/06/16 02:50:24;;;;;;;2.50;2.30;;;;;;;17.29;54.53;98730.06;5125882;27;41985;-74
2022/06/16 02:53:08;;;;;;;2.93;2.70;;;;;;;17.24;54.83;98732.28;5126921;27;40050;-76
2022/06/16 02:55:41;;;;;;;2.50;2.30;;;;;;;17.17;54.30;98725.81;5121946;27;41917;-76
2022/06/16 02:58:12;;;;;;;2.73;2.53;;;;;;;17.12;54.41;98741.44;5122029;27;42992;-74
2022/06/16 03:00:48;;;;;;;2.43;2.23;;;;;;;17.07;54.45;98738.34;5073467;28;41494;-74
2022/06/16 03:03:19;;;;;;;2.67;2.47;;;;;;;17.06;54.65;98739.34;5088218;28;39903;-75
2022/06/16 03:05:51;;;;;;;2.43;2.10;;;;;;;17.01;54.64;98742.44;5107551;28;44004;-75
2022/06/16 03:08:19;;;;;;;2.17;1.97;;;;;;;17.00;54.47;98745.25;5124994;27;45509;-77
2022/06/16 03:10:52;;;;;;;2.57;2.37;;;;;;;16.96;54.64;98743.81;5090706;28;42199;-78
2022/06/16 03:13:23;;;;;;;2.43;2.20;;;;;;;16.92;54.55;98737.06;5122053;27;39627;-74
2022/06/16 03:15:52;;;;;;;2.20;2.10;;;;;;;16.88;54.64;98736.50;5124761;27;41475;-75
2022/06/16 03:18:23;;;;;;;2.30;2.10;;;;;;;16.85;54.58;98737.59;5124648;27;42448;-76
2022/06/16 03:20:51;;;;;;;2.47;2.27;;;;;;;16.84;54.70;98738.59;5107276;28;41471;-75
2022/06/16 03:23:20;;;;;;;2.13;2.00;;;;;;;16.82;54.42;98748.56;5107864;28;40376;-76
2022/06/16 03:25:50;;;;;;;3.33;2.10;;;;;;;16.82;54.52;98742.38;5092687;28;42314;-76
2022/06/16 03:28:18;;;;;;;2.33;2.20;;;;;;;16.74;54.96;98740.41;5111154;28;43329;-77
2022/06/16 03:30:46;;;;;;;2.13;2.03;;;;;;;16.79;54.49;98751.56;5095328;28;43170;-76
2022/06/16 03:33:16;;;;;;;3.33;2.07;;;;;;;16.79;54.49;98748.88;5128536;27;39766;-75
2022/06/16 03:35:49;;;;;;;4.20;2.00;;;;;;;16.78;54.68;98752.53;5076970;28;40848;-77
2022/06/16 03:38:21;;;;;;;2.20;2.00;;;;;;;16.79;54.52;98754.22;5094015;28;42698;-76
2022/06/16 03:40:49;;;;;;;2.10;1.80;;;;;;;16.80;54.36;98755.06;5110604;28;42227;-75
2022/06/16 03:43:17;;;;;;;1.93;1.83;;;;;;;16.81;54.25;98757.59;5076991;28;39080;-77
2022/06/16 03:45:45;;;;;;;2.13;1.93;;;;;;;16.82;54.38;98759.28;5127672;27;41811;-77
2022/06/16 03:48:16;;;;;;;1.70;1.60;;;;;;;16.84;54.33;98761.81;5094191;28;43202;-76
2022/06/16 03:50:46;;;;;;;2.37;2.17;;;;;;;16.87;54.54;98759.72;5125034;27;42294;-77
2022/06/16 03:53:17;;;;;;;1.70;1.60;;;;;;;16.92;54.34;98759.31;5125238;27;40894;-74
2022/06/16 03:55:52;;;;;;;2.00;1.83;;;;;;;16.96;54.20;98755.34;5125660;27;41651;-74
2022/06/16 03:58:25;;;;;;;1.73;1.63;;;;;;;17.01;54.44;98762.97;5124880;27;43408;-74
2022/06/16 04:00:53;;;;;;;2.30;2.10;;;;;;;17.05;54.12;98759.06;5076418;28;43005;-74
2022/06/16 04:06:10;;;;;;;2.23;2.03;;;;;;;17.18;54.20;98765.81;5076945;28;40639;-74
2022/06/16 04:08:40;;;;;;;2.30;2.10;;;;;;;17.25;54.38;98771.47;5094952;28;43856;-73
2022/06/16 04:13:50;;;;;;;2.53;1.77;;;;;;;17.41;54.01;98779.78;5075995;28;40313;-78
2022/06/16 04:16:18;;;;;;;1.90;1.80;;;;;;;17.48;53.96;98780.06;5076174;28;41201;-76
2022/06/16 04:18:46;;;;;;;1.87;1.77;;;;;;;17.56;54.02;98785.53;5076266;28;44207;-74
2022/06/16 04:21:15;;;;;;;2.30;2.03;;;;;;;17.64;54.19;98780.38;5076094;28;41009;-77
2022/06/16 04:23:59;;;;;;;2.17;2.07;;;;;;;17.73;54.30;98789.38;5076754;28;38909;-77
2022/06/16 04:26:27;;;;;;;1.67;1.57;;;;;;;17.79;53.95;98788.81;5127439;27;41880;-74
2022/06/16 04:28:56;;;;;;;2.53;2.10;;;;;;;17.87;54.19;98794.31;5093310;28;43468;-76
2022/06/16 04:31:25;;;;;;;2.17;1.97;;;;;;;17.85;54.33;98786.41;5126847;27;42412;-74
2022/06/16 04:33:55;;;;;;;2.43;2.23;;;;;;;17.84;54.01;98784.72;5093121;28;39705;-75
2022/06/16 04:36:23;;;;;;;2.20;2.00;;;;;;;17.84;54.34;98784.72;5109251;27;40730;-76
2022/06/16 04:39:03;;;;;;;1.87;1.77;;;;;;;17.85;54.10;98780.19;5090119;28;42707;-76
2022/06/16 04:41:32;;;;;;;2.30;2.10;;;;;;;17.89;54.58;98785.13;5125277;27;42254;-78
2022/06/16 04:44:00;;;;;;;2.33;2.20;;;;;;;17.93;54.77;98772.28;5093239;28;39738;-75
2022/06/16 04:46:31;;;;;;;2.37;2.10;;;;;;;18.03;54.70;98773.13;5109776;28;40661;-75
2022/06/16 04:48:59;;;;;;;2.17;2.00;;;;;;;18.16;55.08;98772.81;5093187;28;41637;-77
2022/06/16 04:51:27;;;;;;;2.47;2.17;;;;;;;18.30;54.57;98773.16;5075791;28;41079;-77
2022/06/16 04:53:55;;;;;;;2.83;2.60;;;;;;;18.43;54.90;98769.31;5109950;28;40520;-77
2022/06/16 04:56:37;;;;;;;3.77;2.93;;;;;;;18.57;54.92;98771.50;5109725;28;40553;-74
2022/06/16 04:59:17;;;;;;;2.40;2.20;;;;;;;18.69;54.76;98775.72;5123928;27;43784;-76
2022/06/16 05:01:56;;;;;;;2.97;2.77;;;;;;;18.82;55.43;98773.53;5109405;28;41413;-74
2022/06/16 05:04:46;;;;;;;2.70;2.50;;;;;;;18.93;55.46;98767.94;5082393;28;39035;-75
2022/06/16 05:07:21;;;;;;;2.93;2.73;;;;;;;19.02;55.33;98777.81;5126439;27;41818;-76
2022/06/16 05:10:11;;;;;;;2.60;2.40;;;;;;;19.13;54.87;98775.91;5092598;28;41700;-77
2022/06/16 05:12:40;;;;;;;3.10;2.90;;;;;;;19.25;54.82;98782.72;5092543;28;42391;-74
2022/06/16 05:15:31;;;;;;;2.33;2.23;;;;;;;19.38;54.52;98777.81;5082182;28;42348;-76
2022/06/16 05:18:14;;;;;;;2.80;2.60;;;;;;;19.51;54.71;98790.91;5092498;28;43147;-74
2022/06/16 05:21:16;;;;;;;3.73;2.83;;;;;;;19.63;54.57;98793.19;5069304;28;42117;-76
2022/06/16 05:24:04;;;;;;;3.03;2.73;;;;;;;19.69;54.25;98802.47;5088313;28;41104;-76
2022/06/16 05:26:41;;;;;;;2.70;2.50;;;;;;;19.71;54.53;98798.63;5092276;28;40510;-76
2022/06/16 05:29:29;;;;;;;3.03;2.77;;;;;;;19.80;54.63;98798.69;5090490;28;42687;-75
2022/06/16 05:32:05;;;;;;;5.93;3.20;;;;;;;19.95;54.02;98797.16;5125316;27;42827;-77
2022/06/16 05:34:44;;;;;;;2.73;2.53;;;;;;;20.21;54.35;98806.06;5092305;28;41704;-77
2022/06/16 05:37:33;;;;;;;3.77;3.30;;;;;;;20.50;53.55;98815.69;5108851;28;38963;-74
2022/06/16 05:40:27;;;;;;;3.27;2.97;;;;;;;20.75;53.42;98812.13;5083558;28;41498;-75
2022/06/16 05:42:58;;;;;;;3.00;2.80;;;;;;;20.95;52.79;98812.72;5090117;28;42740;-77
2022/06/16 05:45:51;;;;;;;3.00;2.80;;;;;;;21.21;52.94;98809.97;5092511;27;42026;-77
2022/06/16 05:48:33;;;;;;;3.53;3.23;;;;;;;21.36;52.13;98805.63;5074795;28;40468;-74
2022/06/16 05:51:08;;;;;;;3.20;2.90;;;;;;;21.69;52.04;98825.38;5074516;28;42081;-78
2022/06/16 05:53:44;;;;;;;3.07;2.77;;;;;;;22.10;50.80;98829.81;5108674;28;41916;-77
2022/06/16 05:56:12;;;;;;;2.87;2.67;;;;;;;22.48;50.07;98840.88;5074457;28;42314;-79
2022/06/16 05:58:42;;;;;;;2.90;2.70;;;;;;;22.61;49.55;98845.75;5091791;28;41956;-76
2022/06/16 06:01:14;;;;;;;3.83;2.97;;;;;;;22.86;49.57;98850.94;5091932;28;41598;-75
2022/06/16 06:03:44;;;;;;;2.47;2.27;;;;;;;23.26;49.19;98863.44;5074586;28;43261;-78
2022/06/16 06:06:12;;;;;;;3.13;2.83;;;;;;;23.44;48.76;98860.47;5074737;28;41168;-76
2022/06/16 06:17:11;;;;;;;3.20;2.60;;;;;;;23.85;47.49;98876.47;5091454;28;42329;-77
2022/06/16 06:19:39;;;;;;;2.80;2.60;;;;;;;23.80;47.91;98879.72;5122798;27;40230;-74
2022/06/16 06:22:11;;;;;;;1.97;1.87;;;;;;;23.70;47.38;98875.56;5108209;28;43032;-77
2022/06/16 06:24:41;;;;;;;2.67;2.47;;;;;;;23.63;48.24;98875.41;5088326;28;42979;-78
2022/06/16 06:27:22;;;;;;;3.07;2.87;;;;;;;23.66;48.86;98880.47;5108066;28;41068;-77
2022/06/16 06:29:50;;;;;;;2.73;2.53;;;;;;;23.68;48.17;98875.75;5074552;28;40192;-75
2022/06/16 06:32:21;;;;;;;2.53;2.37;;;;;;;23.75;47.57;98884.81;5090787;28;42611;-79
2022/06/16 06:34:49;;;;;;;2.60;2.40;;;;;;;23.85;48.32;98874.63;5088436;28;43852;-75
2022/06/16 06:37:20;;;;;;;2.60;2.40;;;;;;;24.09;47.99;98888.97;5091376;28;42266;-77
2022/06/16 06:39:49;;;;;;;3.63;2.90;;;;;;;24.34;47.20;98890.50;5089474;28;40044;-78
2022/06/16 06:42:16;;;;;;;2.77;2.57;;;;;;;24.32;47.37;98887.13;5074278;28;41688;-75
2022/06/16 06:44:45;;;;;;;3.23;2.77;;;;;;;24.32;46.79;98887.13;5092503;28;42830;-77
2022/06/16 06:47:18;;;;;;;3.00;2.80;;;;;;;24.63;46.72;98895.13;5090676;28;42161;-76
2022/06/16 06:49:47;;;;;;;3.80;3.43;;;;;;;24.92;46.11;98903.28;5122408;27;41681;-77
2022/06/16 06:52:15;;;;;;;3.83;2.90;;;;;;;25.05;45.27;98908.09;5091487;28;42664;-78
2022/06/16 06:54:45;;;;;;;3.93;2.77;;;;;;;25.15;44.88;98910.50;5108217;28;41409;-78
2022/06/16 06:57:15;;;;;;;2.70;2.50;;;;;;;25.32;45.22;98912.84;5125363;27;42453;-78
2022/06/16 06:59:43;;;;;;;2.63;2.43;;;;;;;25.33;45.11;98895.56;5091884;28;41143;-76
2022/06/16 07:02:12;;;;;;;2.93;2.60;;;;;;;25.70;44.39;98918.16;5090520;28;41641;-75
2022/06/16 07:04:40;;;;;;;2.47;2.27;;;;;;;26.28;43.11;98919.00;5092012;28;42670;-77
2022/06/16 07:07:11;;;;;;;2.93;2.67;;;;;;;26.93;42.35;98924.16;5125127;27;42269;-76
2022/06/16 07:09:39;;;;;;;2.87;2.67;;;;;;;27.33;42.05;98930.66;5107756;28;39582;-79
2022/06/16 07:12:13;;;;;;;3.57;3.00;;;;;;;27.37;41.63;98937.38;5090818;28;40657;-77
2022/06/16 07:14:41;;;;;;;2.80;2.60;;;;;;;27.39;41.18;98929.88;5090587;28;43636;-76
2022/06/16 07:17:09;;;;;;;3.40;3.10;;;;;;;27.46;41.75;98932.59;5091826;28;43213;-77
2022/06/16 07:19:37;;;;;;;4.57;2.97;;;;;;;27.44;41.55;98919.22;5090936;28;40280;-77
2022/06/16 07:22:06;;;;;;;2.80;2.60;;;;;;;27.78;41.12;98939.28;5090543;28;41820;-77
2022/06/16 07:24:36;;;;;;;2.90;2.70;;;;;;;28.29;40.48;98952.44;5090535;28;43564;-76
2022/06/16 07:27:05;;;;;;;2.80;2.60;;;;;;;28.90;40.11;98945.78;5090369;28;41484;-81
2022/06/16 07:29:33;;;;;;;4.20;3.10;;;;;;;29.35;39.05;98958.69;5090600;28;39236;-79
2022/06/16 07:32:01;;;;;;;2.70;2.50;;;;;;;29.47;37.58;98974.22;5092255;28;42095;-74
2022/06/16 07:34:29;;;;;;;3.10;2.90;;;;;;;29.87;37.26;98983.13;5091776;28;42884;-79
2022/06/16 07:36:58;;;;;;;2.80;2.60;;;;;;;31.25;35.42;98988.75;5107048;28;42341;-76
2022/06/16 07:39:25;;;;;;;3.30;3.00;;;;;;;32.37;33.13;98993.78;5124683;27;40768;-77
2022/06/16 07:41:55;;;;;;;3.27;3.07;;;;;;;32.92;31.54;99010.03;5090122;28;43470;-76
2022/06/16 07:44:23;;;;;;;3.23;2.93;;;;;;;33.62;30.04;99018.31;5090494;28;41807;-76
2022/06/16 07:46:51;;;;;;;3.20;2.93;;;;;;;33.67;29.97;99010.19;5090509;28;43293;-76
2022/06/16 07:49:22;;;;;;;2.90;2.63;;;;;;;32.98;30.95;99003.59;5090559;28;38748;-74
2022/06/16 07:51:50;;;;;;;2.80;2.60;;;;;;;32.32;32.61;98988.13;5089648;28;41971;-82
2022/06/16 07:54:19;;;;;;;3.00;2.73;;;;;;;31.84;33.58;98985.38;5091450;28;43710;-83
2022/06/16 07:56:47;;;;;;;4.60;2.60;;;;;;;31.61;33.65;98986.06;5090428;28;43091;-77
2022/06/16 07:59:16;;;;;;;3.23;3.03;;;;;;;32.31;33.51;98986.47;5090645;28;39954;-76
2022/06/16 08:01:44;;;;;;;3.23;2.93;;;;;;;32.15;33.34;98995.28;5123879;27;41514;-78
2022/06/16 08:04:12;;;;;;;7.30;2.90;;;;;;;31.76;33.59;98997.50;5090201;28;43352;-74
2022/06/16 08:06:41;;;;;;;2.80;2.60;;;;;;;31.55;33.76;98980.63;5089686;28;41312;-75
2022/06/16 08:09:10;;;;;;;3.13;2.93;;;;;;;31.95;33.79;98986.50;5124609;27;40910;-79
2022/06/16 08:14:25;;;;;;;3.23;3.00;;;;;;;33.39;31.61;99010.91;5093884;28;43035;-75
2022/06/16 08:16:53;;;;;;;3.10;2.90;;;;;;;33.42;31.54;99013.19;5094495;28;42402;-76
2022/06/16 08:19:21;;;;;;;3.20;2.90;;;;;;;33.44;31.95;98997.31;5093880;28;38876;-76
2022/06/16 08:21:50;;;;;;;3.53;3.23;;;;;;;33.80;31.41;99009.94;5093517;28;42125;-76
2022/06/16 08:24:19;;;;;;;4.30;3.57;;;;;;;34.24;30.14;99024.06;5093362;28;42612;-77
2022/06/16 08:26:47;;;;;;;3.60;3.40;;;;;;;34.88;30.12;99017.31;5094561;28;41879;-77
2022/06/16 08:29:17;;;;;;;3.90;3.30;;;;;;;35.22;29.69;99014.56;5094474;28;40934;-78
2022/06/16 08:31:48;;;;;;;3.40;3.20;;;;;;;35.25;29.01;99022.31;5110190;28;42362;-79
2022/06/16 08:34:16;;;;;;;3.60;3.40;;;;;;;35.19;29.54;99023.31;5127522;27;43749;-75
2022/06/16 08:36:44;;;;;;;3.13;2.93;;;;;;;35.57;28.73;99036.34;5093165;28;43285;-78
2022/06/16 08:39:12;;;;;;;3.97;2.97;;;;;;;36.77;26.59;99040.91;5093257;28;38845;-79
2022/06/16 08:41:48;;;;;;;3.28;2.97;;;;;;;37.92;25.62;99042.09;5093327;28;41982;-80
2022/06/16 08:44:21;;;;;;;3.70;2.95;;;;;;;39.46;24.09;99067.94;5076049;28;44301;-76
2022/06/16 08:46:59;;;;;;;3.25;3.05;;;;;;;40.69;22.63;99065.59;5092971;28;40733;-77
2022/06/16 08:49:34;;;;;;;2.67;2.55;;;;;;;41.65;21.96;99080.78;5124598;27;39904;-77
2022/06/16 08:52:18;;;;;;;3.00;2.80;;;;;;;42.21;21.12;99075.41;5092169;28;43408;-78
2022/06/16 08:54:59;;;;;;;3.38;3.17;;;;;;;41.98;21.66;99074.31;5091245;28;42821;-77
2022/06/16 08:57:38;;;;;;;3.25;2.80;;;;;;;41.84;21.81;99079.72;5092679;28;44196;-80
2022/06/16 09:00:09;;;;;;;3.20;2.90;;;;;;;42.31;21.10;99078.91;5091025;28;40196;-78
2022/06/16 09:02:53;;;;;;;3.03;2.83;;;;;;;42.90;20.37;99080.38;5092528;28;42622;-82
2022/06/16 09:05:34;;;;;;;3.25;3.00;;;;;;;43.12;20.09;99087.28;5093030;28;43328;-81
2022/06/16 09:08:12;;;;;;;3.63;3.33;;;;;;;43.14;20.27;99085.00;5091180;28;43342;-78
2022/06/16 09:10:45;;;;;;;2.95;2.75;;;;;;;43.17;19.82;99095.53;5091001;28;39696;-80
2022/06/16 09:13:35;;;;;;;2.90;2.70;;;;;;;43.53;19.05;99104.97;5091173;28;41654;-77
2022/06/16 09:16:13;;;;;;;2.90;2.70;;;;;;;43.58;19.58;99106.88;5091479;28;42563;-78
2022/06/16 09:19:00;;;;;;;3.05;2.80;;;;;;;44.51;18.80;99102.88;5092363;28;42381;-74
2022/06/16 09:21:38;;;;;;;3.15;2.85;;;;;;;45.59;18.10;99100.06;5110123;28;39740;-79
2022/06/16 09:24:23;;;;;;;2.90;2.70;;;;;;;46.25;17.65;99105.78;5090350;28;42028;-80
2022/06/16 09:26:57;;;;;;;2.95;2.75;;;;;;;46.41;17.74;99099.44;5092644;28;42822;-76
2022/06/16 09:29:31;;;;;;;3.25;2.60;;;;;;;45.96;17.62;99111.97;5109680;28;41132;-79
2022/06/16 09:32:05;;;;;;;2.58;2.40;;;;;;;44.87;18.33;99100.13;5092458;28;41015;-74
2022/06/16 09:34:39;;;;;;;2.85;2.63;;;;;;;44.05;19.17;99100.16;5090641;28;41730;-77
2022/06/16 09:37:12;;;;;;;3.03;2.58;;;;;;;43.18;19.48;99097.22;5092530;28;43737;-81
2022/06/16 09:39:44;;;;;;;2.70;2.50;;;;;;;43.75;19.38;99092.38;5092668;28;43816;-81
2022/06/16 09:42:37;;;;;;;2.63;2.42;;;;;;;45.09;17.53;99111.31;5075923;28;39107;-79
2022/06/16 09:45:21;;;;;;;3.10;2.80;;;;;;;46.15;17.30;99104.94;5109111;28;43389;-79
2022/06/16 09:47:59;;;;;;;2.38;2.28;;;;;;;46.37;16.24;99115.25;5092032;28;42964;-75
2022/06/16 09:50:35;;;;;;;2.50;2.30;;;;;;;46.60;16.53;99112.34;5092004;28;40850;-80
2022/06/16 09:53:06;;;;;;;3.15;2.33;;;;;;;47.00;16.30;99105.47;5090523;28;40111;-80
2022/06/16 09:55:37;;;;;;;2.40;2.20;;;;;;;47.38;16.16;99110.47;5089844;28;41707;-79
2022/06/16 09:58:12;;;;;;;2.40;2.30;;;;;;;47.61;16.02;99114.69;5091934;28;41667;-77
2022/06/16 10:00:41;;;;;;;2.55;2.35;;;;;;;47.47;16.00;99105.69;5123009;27;42190;-80
2022/06/16 10:03:17;;;;;;;3.13;2.80;;;;;;;46.94;16.03;99112.41;5093272;28;39978;-79
2022/06/16 10:05:58;;;;;;;2.80;2.60;;;;;;;46.44;15.91;99115.63;5108457;28;40515;-78
2022/06/16 10:08:33;;;;;;;4.32;2.45;;;;;;;45.67;16.22;99116.06;5092218;28;43168;-78
2022/06/16 10:11:10;;;;;;;2.50;2.40;;;;;;;44.88;16.78;99110.16;5090021;28;42337;-82
2022/06/16 10:13:44;;;;;;;4.05;2.90;;;;;;;44.46;16.33;99116.09;5089873;28;40861;-80
2022/06/16 10:16:15;;;;;;;2.83;2.47;;;;;;;43.70;17.10;99116.44;5090462;28;42045;-79
2022/06/16 10:18:44;;;;;;;2.80;2.60;;;;;;;42.99;18.76;99111.16;5092776;28;43660;-79
2022/06/16 10:21:15;;;;;;;3.28;2.97;;;;;;;42.54;18.63;99096.72;5092737;28;43021;-79
2022/06/16 10:23:47;;;;;;;3.78;2.60;;;;;;;41.94;19.49;99107.41;5089774;28;39846;-80
2022/06/16 10:26:14;;;;;;;2.65;2.45;;;;;;;41.37;20.73;99091.56;5090447;28;41579;-77
2022/06/16 10:29:01;;;;;;;4.57;3.30;;;;;;;40.99;20.29;99086.84;5125416;27;42886;-80
2022/06/16 10:31:37;;;;;;;2.92;2.72;;;;;;;40.55;21.01;99084.88;5092365;28;43151;-78
2022/06/16 10:34:20;;;;;;;3.35;2.80;;;;;;;40.30;20.93;99093.31;5122028;27;40979;-78
2022/06/16 10:36:58;;;;;;;3.00;2.80;;;;;;;40.30;22.40;99085.00;5091888;28;41754;-81
2022/06/16 10:39:34;;;;;;;2.55;2.20;;;;;;;40.54;21.97;99091.53;5091172;28;42109;-79
2022/06/16 10:42:12;;;;;;;2.70;2.50;;;;;;;40.63;21.29;99092.59;5091029;28;44773;-79
2022/06/16 10:44:41;;;;;;;2.97;2.78;;;;;;;40.38;20.74;99101.88;5122374;27;40864;-76
2022/06/16 10:47:20;;;;;;;2.72;2.53;;;;;;;40.07;21.77;99106.66;5091938;28;41750;-78
2022/06/16 10:49:50;;;;;;;2.40;2.20;;;;;;;39.65;21.98;99100.66;5090951;28;41974;-79
2022/06/16 10:52:31;;;;;;;2.47;2.38;;;;;;;39.36;23.00;99094.81;5090730;28;41188;-79
2022/06/16 10:55:06;;;;;;;2.40;2.30;;;;;;;39.20;22.12;99107.84;5091972;28;20220;-76
2022/06/16 10:57:42;;;;;;;2.97;2.60;;;;;;;39.07;22.10;99108.41;5124897;27;41838;-76
2022/06/16 11:00:16;;;;;;;2.40;2.20;;;;;;;38.85;22.06;99105.00;5088938;28;43586;-78
2022/06/16 11:03:07;;;;;;;2.93;2.73;;;;;;;38.71;22.03;99107.44;5091720;28;42227;-82
2022/06/16 11:05:39;;;;;;;2.60;2.40;;;;;;;38.71;22.31;99111.06;5090378;28;41194;-76
2022/06/16 11:08:11;;;;;;;2.65;2.45;;;;;;;38.76;23.12;99108.31;5121968;27;42280;-77
2022/06/16 11:10:42;;;;;;;2.80;2.47;;;;;;;38.65;22.37;99112.16;5107727;28;44325;-79
2022/06/16 11:13:16;;;;;;;2.70;2.40;;;;;;;38.70;21.75;99114.91;5087785;28;42277;-79
2022/06/16 11:15:50;;;;;;;2.20;2.10;;;;;;;38.81;23.08;99118.56;5087715;28;41339;-82
2022/06/16 11:18:21;;;;;;;3.23;2.60;;;;;;;38.93;21.55;99123.88;5090598;28;40388;-81
2022/06/16 11:20:51;;;;;;;2.35;2.15;;;;;;;39.16;22.53;99123.38;5073668;28;42734;-75
2022/06/16 11:23:30;;;;;;;3.17;2.10;;;;;;;39.43;21.05;99129.50;5107569;28;41776;-82
2022/06/16 11:26:09;;;;;;;2.63;2.42;;;;;;;39.66;21.20;99130.88;5090413;28;40445;-81
2022/06/16 11:28:43;;;;;;;2.38;2.10;;;;;;;39.50;20.74;99140.31;5121382;27;42294;-76
2022/06/16 11:31:17;;;;;;;2.42;2.17;;;;;;;39.44;20.99;99145.00;5089627;28;43456;-77
2022/06/16 11:36:52;;;;;;;2.30;2.15;;;;;;;39.44;20.36;99164.41;5073366;28;40430;-79
2022/06/16 11:39:30;;;;;;;2.40;2.20;;;;;;;39.46;20.77;99155.81;5090515;28;41636;-80
2022/06/16 11:41:59;;;;;;;2.10;2.00;;;;;;;39.56;20.31;99155.03;5089394;28;43300;-78
2022/06/16 11:44:44;;;;;;;2.80;2.45;;;;;;;39.49;20.52;99153.34;5091267;28;42439;-79
2022/06/16 11:47:27;;;;;;;2.13;2.03;;;;;;;39.55;20.47;99125.63;5093863;28;40416;-81
2022/06/16 11:50:01;;;;;;;3.05;2.70;;;;;;;40.45;19.88;99146.81;5093756;28;41855;-77
2022/06/16 11:52:39;;;;;;;2.38;2.13;;;;;;;41.24;20.17;99150.59;5094111;28;43027;-76
2022/06/16 11:55:25;;;;;;;2.60;2.40;;;;;;;41.58;19.43;99148.69;5110773;28;42424;-78
2022/06/16 11:58:03;;;;;;;2.53;1.92;;;;;;;41.84;18.18;99165.13;5111053;28;39536;-78
2022/06/16 12:00:35;;;;;;;2.38;2.17;;;;;;;41.91;18.65;99148.94;5091751;28;42732;-83
2022/06/16 12:03:23;;;;;;;4.18;2.50;;;;;;;42.25;18.08;99160.84;5090735;28;42791;-79
2022/06/16 12:06:06;;;;;;;1.98;1.88;;;;;;;42.83;18.11;99163.50;5110394;28;43509;-76
2022/06/16 12:08:51;;;;;;;1.90;1.80;;;;;;;43.58;16.42;99174.69;5091863;28;40958;-78
2022/06/16 12:11:27;;;;;;;2.00;1.85;;;;;;;44.64;15.68;99196.16;5125828;27;41844;-80
2022/06/16 12:14:01;;;;;;;2.47;2.28;;;;;;;45.54;15.53;99178.53;5093551;28;43202;-77
2022/06/16 12:16:36;;;;;;;3.42;2.40;;;;;;;46.13;14.17;99193.22;5076083;28;42223;-77
2022/06/16 12:19:11;;;;;;;2.53;2.38;;;;;;;46.74;14.77;99188.78;5124738;27;40144;-76
2022/06/16 12:21:45;;;;;;;2.38;1.90;;;;;;;47.40;14.90;99192.34;5093017;28;42075;-81
2022/06/16 12:24:25;;;;;;;2.15;2.05;;;;;;;48.07;13.76;99200.19;5124652;27;42696;-77
2022/06/16 12:27:02;;;;;;;2.20;2.10;;;;;;;48.61;14.18;99203.31;5093237;28;43532;-79